Time;durP1;ratioP1;P1;durP2;ratioP2;P2;SDS_P1;SDS_P2;PMS_P1;PMS_P2;Temp;Humidity;BMP_temperature;BMP_pressure;BME280_temperature;BME280_humidity;BME280_pressure;Samples;Min_cycle;Max_cycle;Signal;HPM_P1;HPM_P2
2023/05/06 00:02:18;;;;;;;;;17.40;17.40;;;;;16.62;42.01;99416.75;5070789;28;8843;-73
2023/05/06 00:04:48;;;;;;;;;21.40;21.20;;;;;16.65;41.77;99421.06;5070580;28;8947;-74
2023/05/06 00:07:18;;;;;;;;;17.80;16.80;;;;;16.64;41.82;99424.63;5071103;28;8858;-72
2023/05/06 00:09:46;;;;;;;;;21.20;20.60;;;;;16.63;42.05;99414.97;5071007;28;8927;-74
2023/05/06 00:12:15;;;;;;;;;19.40;18.20;;;;;16.60;41.86;99414.16;5036007;28;8842;-75
2023/05/06 00:14:44;;;;;;;;;18.40;17.60;;;;;16.61;42.15;99420.34;5070720;28;8881;-72
2023/05/06 00:17:12;;;;;;;;;21.00;20.80;;;;;16.59;42.20;99419.56;5070603;28;8858;-75
2023/05/06 00:19:43;;;;;;;;;18.60;18.20;;;;;16.65;42.13;99421.06;5070883;28;9070;-74
2023/05/06 00:22:12;;;;;;;;;16.80;15.80;;;;;16.59;42.12;99417.75;5070553;28;8866;-74
2023/05/06 00:24:40;;;;;;;;;17.00;17.00;;;;;16.61;42.29;99415.03;5070663;28;8943;-74
2023/05/06 00:27:09;;;;;;;;;20.00;19.00;;;;;16.59;42.55;99419.56;5070630;28;8851;-73
2023/05/06 00:29:38;;;;;;;;;17.20;17.20;;;;;16.60;42.57;99418.59;5069453;28;9004;-75
2023/05/06 00:32:07;;;;;;;;;20.60;20.40;;;;;16.60;42.65;99415.97;5035104;28;8854;-74
2023/05/06 00:34:36;;;;;;;;;25.40;22.80;;;;;16.63;42.47;99422.94;5070245;28;8867;-75
2023/05/06 00:37:06;;;;;;;;;20.80;19.00;;;;;16.58;42.80;99415.16;5052698;28;8850;-75
2023/05/06 00:39:34;;;;;;;;;23.40;22.40;;;;;16.59;42.67;99423.06;5034810;28;8842;-73
2023/05/06 00:42:04;;;;;;;;;24.80;23.40;;;;;16.58;42.92;99417.81;5018361;28;8854;-73
2023/05/06 00:44:32;;;;;;;;;21.00;19.60;;;;;16.58;42.98;99418.69;5035241;28;8877;-73
2023/05/06 00:47:01;;;;;;;;;22.60;22.60;;;;;16.59;43.02;99424.88;5070152;28;8858;-74
2023/05/06 00:49:30;;;;;;;;;20.40;20.40;;;;;16.58;43.12;99418.69;5068846;28;8893;-74
2023/05/06 00:52:00;;;;;;;;;25.20;23.80;;;;;16.59;43.03;99428.38;5070184;28;9595;-74
2023/05/06 00:54:30;;;;;;;;;21.00;19.20;;;;;16.61;43.01;99420.34;5068606;28;9627;-74
2023/05/06 00:57:00;;;;;;;;;22.60;22.60;;;;;16.56;43.06;99428.50;5068474;28;8831;-72
2023/05/06 00:59:28;;;;;;;;;23.60;22.80;;;;;16.56;43.02;99419.69;5069029;28;8973;-73
2023/05/06 01:01:58;;;;;;;;;23.80;22.80;;;;;16.54;42.99;99422.41;5070081;28;8842;-73
2023/05/06 01:04:28;;;;;;;;;24.80;23.80;;;;;16.52;43.04;99423.44;5069964;28;8884;-74
2023/05/06 01:07:08;;;;;;;;;23.00;21.00;;;;;16.58;43.16;99423.97;5069723;28;8908;-74
2023/05/06 01:09:43;;;;;;;;;20.40;20.40;;;;;16.55;43.17;99418.84;5034150;28;8866;-72
2023/05/06 01:12:21;;;;;;;;;26.00;23.75;;;;;16.50;43.12;99422.66;5069640;28;8854;-74
2023/05/06 01:14:59;;;;;;;;;26.00;25.20;;;;;16.46;43.22;99418.44;5068222;28;9678;-73
2023/05/06 01:17:31;;;;;;;;;26.25;25.75;;;;;16.40;43.27;99427.50;5068192;28;8916;-72
2023/05/06 01:20:01;;;;;;;;;23.40;22.80;;;;;16.34;43.40;99422.47;5068071;28;8869;-75
2023/05/06 01:22:32;;;;;;;;;23.75;23.25;;;;;16.27;43.41;99421.06;5067924;28;9617;-73
2023/05/06 01:25:02;;;;;;;;;24.40;24.40;;;;;16.23;43.54;99415.88;5069510;28;8859;-73
2023/05/06 01:27:30;;;;;;;;;26.00;24.60;;;;;16.21;43.55;99420.41;5068085;28;8843;-74
2023/05/06 01:30:00;;;;;;;;;23.40;22.60;;;;;16.20;43.52;99420.47;5086668;28;8857;-72
2023/05/06 01:32:40;;;;;;;;;23.80;21.80;;;;;16.27;43.50;99423.69;5086963;28;8838;-73
2023/05/06 01:35:19;;;;;;;;;24.60;22.20;;;;;16.28;43.49;99422.75;5087196;28;9584;-73
2023/05/06 01:37:56;;;;;;;;;26.00;26.00;;;;;16.25;43.65;99420.22;5087102;28;8850;-74
2023/05/06 01:40:29;;;;;;;;;30.75;29.50;;;;;16.18;43.66;99420.53;5070461;28;8833;-74
2023/05/06 01:43:00;;;;;;;;;31.00;30.00;;;;;16.17;43.49;99423.25;5087103;28;9082;-72
2023/05/06 01:45:31;;;;;;;;;29.50;29.50;;;;;16.11;43.59;99416.44;5087008;28;8845;-75
2023/05/06 01:48:00;;;;;;;;;34.50;31.50;;;;;16.04;43.87;99420.31;5064337;28;8836;-74
2023/05/06 01:50:30;;;;;;;;;30.00;26.75;;;;;15.98;44.10;99420.56;5050047;28;8874;-74
2023/05/06 01:53:03;;;;;;;;;24.75;24.75;;;;;15.94;44.31;99419.00;5066436;28;8921;-74
2023/05/06 01:55:33;;;;;;;;;25.40;23.80;;;;;15.89;44.44;99421.88;5049772;28;9637;-73
2023/05/06 01:58:02;;;;;;;;;25.00;24.20;;;;;15.83;44.51;99417.69;5049908;28;8852;-74
2023/05/06 02:00:30;;;;;;;;;28.25;27.00;;;;;15.74;44.92;99419.91;5049610;28;9085;-74
2023/05/06 02:02:59;;;;;;;;;26.25;25.50;;;;;15.68;45.23;99418.38;5049823;28;8851;-73
2023/05/06 02:05:28;;;;;;;;;26.40;24.80;;;;;15.66;45.14;99420.22;5049770;28;8875;-74
2023/05/06 02:07:59;;;;;;;;;25.20;25.00;;;;;15.66;45.15;99419.38;5047034;28;8869;-74
2023/05/06 02:10:28;;;;;;;;;26.50;26.00;;;;;15.67;44.82;99427.25;5047732;28;8870;-74
2023/05/06 02:13:04;;;;;;;;;30.00;27.00;;;;;15.66;45.11;99428.16;5047583;28;8853;-75
2023/05/06 02:15:32;;;;;;;;;31.25;28.75;;;;;15.66;44.96;99411.41;4997392;28;8849;-72
2023/05/06 02:18:02;;;;;;;;;26.25;26.25;;;;;15.63;44.75;99413.28;5047215;28;8857;-75
2023/05/06 02:20:30;;;;;;;;;32.75;29.50;;;;;15.60;44.85;99410.78;5047616;28;8860;-74
2023/05/06 02:22:59;;;;;;;;;31.00;30.25;;;;;15.55;45.22;99420.69;5047838;28;8830;-75
2023/05/06 02:25:29;;;;;;;;;31.00;30.00;;;;;15.51;45.33;99415.56;5051504;28;8988;-75
2023/05/06 02:27:58;;;;;;;;;32.00;30.00;;;;;15.47;45.47;99417.47;5066867;28;8874;-74
2023/05/06 02:30:29;;;;;;;;;32.75;29.75;;;;;15.43;45.52;99416.78;5066903;28;8957;-74
2023/05/06 02:32:58;;;;;;;;;33.50;30.00;;;;;15.40;45.50;99416.03;5032786;28;8851;-74
2023/05/06 02:35:27;;;;;;;;;30.25;29.00;;;;;15.35;45.46;99413.59;5066930;28;8892;-74
2023/05/06 02:37:55;;;;;;;;;31.25;30.25;;;;;15.33;45.48;99417.22;5067882;28;8919;-75
2023/05/06 02:40:24;;;;;;;;;29.50;29.50;;;;;15.25;45.92;99409.63;5068042;28;8862;-74
2023/05/06 02:42:53;;;;;;;;;33.75;31.50;;;;;15.19;46.23;99412.53;5067624;28;8905;-74
2023/05/06 02:45:22;;;;;;;;;36.25;32.50;;;;;15.13;46.27;99421.59;5066700;28;8854;-73
2023/05/06 02:47:52;;;;;;;;;33.25;31.25;;;;;15.09;46.36;99412.03;5067939;28;8884;-75
2023/05/06 02:50:20;;;;;;;;;37.75;33.50;;;;;15.08;46.55;99415.63;5068319;28;8850;-74
2023/05/06 02:52:49;;;;;;;;;32.25;30.25;;;;;15.06;46.54;99417.47;5066520;28;8850;-73
2023/05/06 02:55:18;;;;;;;;;34.00;31.75;;;;;15.00;46.85;99420.34;5067925;28;8886;-75
2023/05/06 02:57:47;;;;;;;;;33.75;31.00;;;;;14.97;47.00;99423.16;5067452;28;9544;-73
2023/05/06 03:00:16;;;;;;;;;38.00;33.75;;;;;14.94;47.07;99420.63;5067948;28;8846;-74
2023/05/06 03:02:45;;;;;;;;;36.75;33.00;;;;;14.93;47.22;99418.91;5066522;28;8846;-73
2023/05/06 03:05:16;;;;;;;;;34.00;31.25;;;;;14.88;47.37;99412.94;5068134;28;8854;-74
2023/05/06 03:07:45;;;;;;;;;39.50;35.00;;;;;14.79;47.81;99415.03;5032668;28;8913;-73
2023/05/06 03:10:15;;;;;;;;;42.00;36.50;;;;;14.56;48.81;99415.91;5033085;28;8858;-73
2023/05/06 03:12:44;;;;;;;;;34.25;31.50;;;;;14.40;49.16;99406.88;5066667;28;8823;-74
2023/05/06 03:15:13;;;;;;;;;38.00;34.50;;;;;14.25;50.12;99408.31;5032753;28;8880;-74
2023/05/06 03:17:42;;;;;;;;;33.25;31.50;;;;;14.31;49.39;99409.88;5066180;28;8862;-76
2023/05/06 03:20:12;;;;;;;;;32.25;31.25;;;;;14.39;48.65;99407.78;5067566;28;8834;-74
2023/05/06 03:22:48;;;;;;;;;35.00;31.50;;;;;14.43;48.99;99410.25;5002376;28;9664;-74
2023/05/06 03:25:18;;;;;;;;;37.25;32.75;;;;;14.47;48.76;99409.22;5066135;28;8835;-75
2023/05/06 03:27:48;;;;;;;;;53.50;43.25;;;;;14.51;48.49;99412.59;5066265;28;8866;-74
2023/05/06 03:30:20;;;;;;;;;45.25;38.75;;;;;14.54;48.74;99411.59;5066121;28;8990;-73
2023/05/06 03:32:51;;;;;;;;;35.50;32.00;;;;;14.56;48.52;99409.75;5049677;28;8847;-73
2023/05/06 03:35:27;;;;;;;;;36.25;33.00;;;;;14.43;49.16;99404.97;5020880;28;8862;-74
2023/05/06 03:38:01;;;;;;;;;34.25;31.75;;;;;14.37;49.51;99404.34;5070343;28;8851;-73
2023/05/06 03:40:41;;;;;;;;;33.50;31.50;;;;;14.09;50.19;99406.25;5024534;28;8933;-73
2023/05/06 03:43:10;;;;;;;;;29.00;28.50;;;;;14.11;50.03;99410.63;5053540;28;8842;-74
2023/05/06 03:45:39;;;;;;;;;34.75;29.75;;;;;14.21;49.57;99412.84;5053387;28;8934;-74
2023/05/06 03:48:08;;;;;;;;;35.00;33.00;;;;;14.26;49.75;99407.38;5053567;28;8873;-73
2023/05/06 03:50:41;;;;;;;;;34.75;32.75;;;;;14.32;49.67;99406.28;5070074;28;8862;-75
2023/05/06 03:53:11;;;;;;;;;30.50;29.75;;;;;14.29;49.75;99399.34;5069988;28;8943;-74
2023/05/06 03:55:43;;;;;;;;;33.00;32.00;;;;;14.30;49.73;99409.00;5069683;28;9446;-75
2023/05/06 03:58:13;;;;;;;;;25.50;25.00;;;;;14.38;49.56;99412.22;5069350;28;8866;-74
2023/05/06 04:00:44;;;;;;;;;37.00;33.75;;;;;14.44;49.18;99417.25;5069909;28;8877;-75
2023/05/06 04:03:13;;;;;;;;;30.75;30.00;;;;;14.59;48.95;99418.44;5071174;28;8920;-74
2023/05/06 04:05:46;;;;;;;;;29.50;28.50;;;;;14.75;48.70;99418.69;5037150;28;8854;-74
2023/05/06 04:08:19;;;;;;;;;80.75;72.75;;;;;14.68;48.84;99419.88;5069459;28;8866;-73
2023/05/06 04:10:48;;;;;;;;;39.00;34.00;;;;;14.67;48.92;99428.72;5018764;28;9882;-75
2023/05/06 04:13:28;;;;;;;;;21.25;19.25;;;;;14.58;49.04;99427.28;5069515;28;8867;-73
2023/05/06 04:15:59;;;;;;;;;34.75;32.00;;;;;14.63;48.85;99421.81;5069392;28;8967;-75
2023/05/06 04:18:35;;;;;;;;;67.75;55.75;;;;;14.62;48.88;99426.25;5067847;28;8836;-73
2023/05/06 04:21:10;;;;;;;;;33.50;32.50;;;;;14.45;49.19;99437.50;5068084;28;9730;-73
2023/05/06 04:23:43;;;;;;;;;31.50;28.50;;;;;14.27;49.51;99439.06;5067651;28;8856;-74
2023/05/06 04:26:16;;;;;;;;;31.75;31.00;;;;;14.38;49.20;99435.16;5068040;28;8950;-76
2023/05/06 04:28:46;;;;;;;;;38.00;33.75;;;;;14.39;49.08;99439.50;5067755;28;8872;-75
2023/05/06 04:31:15;;;;;;;;;38.50;33.50;;;;;14.53;48.72;99441.59;5067571;28;8852;-74
2023/05/06 04:33:47;;;;;;;;;29.00;27.25;;;;;14.62;48.50;99443.91;5067932;28;8835;-75
2023/05/06 04:36:19;;;;;;;;;28.00;27.50;;;;;14.77;48.09;99443.34;5047693;28;8955;-73
2023/05/06 04:39:22;;;;;;;;;30.25;29.25;;;;;14.86;47.79;99442.94;4968985;28;8878;-73
2023/05/06 04:41:51;;;;;;;;;30.50;29.25;;;;;14.79;47.89;99438.84;4952885;28;8878;-74
2023/05/06 04:44:28;;;;;;;;;28.40;28.00;;;;;14.76;47.76;99438.97;4953185;28;8870;-76
2023/05/06 04:46:57;;;;;;;;;26.50;26.50;;;;;14.83;47.33;99445.75;4968516;28;8894;-75
2023/05/06 04:49:26;;;;;;;;;29.00;28.00;;;;;14.79;47.74;99444.16;4924761;28;8854;-74
2023/05/06 04:51:55;;;;;;;;;33.33;30.67;;;;;14.91;47.82;99449.88;4993270;28;8873;-76
2023/05/06 04:54:27;;;;;;;;;33.00;31.50;;;;;15.08;47.93;99444.75;4991621;28;8854;-73
2023/05/06 04:56:56;;;;;;;;;34.00;32.00;;;;;15.14;48.14;99443.63;4992168;28;8878;-75
2023/05/06 04:59:25;;;;;;;;;34.00;32.50;;;;;15.31;47.82;99440.28;4975377;28;8850;-75
2023/05/06 05:01:53;;;;;;;;;45.75;36.25;;;;;15.49;47.13;99449.22;4991561;28;8875;-75
2023/05/06 05:04:22;;;;;;;;;38.00;35.00;;;;;15.61;46.88;99438.13;4991401;28;8924;-76
2023/05/06 05:06:51;;;;;;;;;32.00;31.00;;;;;15.78;46.58;99437.38;4991014;28;8972;-73
2023/05/06 05:09:20;;;;;;;;;38.25;33.00;;;;;15.97;46.18;99443.59;5007426;28;8932;-72
2023/05/06 05:11:51;;;;;;;;;36.50;33.00;;;;;16.15;46.08;99436.59;4991339;28;8858;-74
2023/05/06 05:14:20;;;;;;;;;31.25;30.00;;;;;16.29;45.65;99438.59;4994442;28;8855;-74
2023/05/06 05:16:49;;;;;;;;;36.00;32.25;;;;;16.43;45.42;99437.94;5010940;28;9758;-74
2023/05/06 05:19:18;;;;;;;;;31.75;29.75;;;;;16.58;45.26;99441.72;5047339;28;8873;-73
2023/05/06 05:21:48;;;;;;;;;32.25;30.25;;;;;16.75;44.66;99448.88;5048359;28;8869;-76
2023/05/06 05:24:17;;;;;;;;;32.75;30.75;;;;;16.89;44.41;99450.84;5050132;28;8849;-76
2023/05/06 05:26:46;;;;;;;;;33.25;30.75;;;;;17.00;44.10;99441.44;5069684;28;8863;-74
2023/05/06 05:29:18;;;;;;;;;30.00;29.50;;;;;17.19;43.94;99444.03;5069243;28;8843;-74
2023/05/06 05:31:48;;;;;;;;;32.75;30.50;;;;;17.34;43.54;99446.88;5068006;28;8959;-75
2023/05/06 05:34:17;;;;;;;;;37.50;32.75;;;;;17.50;43.53;99441.66;5067923;28;9737;-75
2023/05/06 05:36:46;;;;;;;;;31.50;30.25;;;;;17.72;43.10;99444.91;5068039;28;8842;-76
2023/05/06 05:39:16;;;;;;;;;30.75;30.00;;;;;17.70;43.01;99453.88;5051086;28;8923;-74
2023/05/06 05:41:47;;;;;;;;;31.50;29.75;;;;;17.88;42.98;99452.94;5068208;28;8881;-76
2023/05/06 05:44:17;;;;;;;;;33.25;30.25;;;;;18.03;42.65;99450.41;5068078;28;9026;-74
2023/05/06 05:46:46;;;;;;;;;34.00;32.00;;;;;18.21;42.29;99460.06;5068351;28;8870;-74
2023/05/06 05:49:18;;;;;;;;;34.25;33.50;;;;;18.30;42.24;99448.94;5068040;28;8855;-73
2023/05/06 05:51:49;;;;;;;;;41.75;35.75;;;;;18.47;41.96;99457.81;5067413;28;9716;-74
2023/05/06 05:54:20;;;;;;;;;43.00;36.75;;;;;18.58;41.64;99458.06;5067738;28;8849;-75
2023/05/06 05:56:49;;;;;;;;;44.25;38.00;;;;;18.73;41.15;99454.53;5057014;28;8934;-75
2023/05/06 05:59:19;;;;;;;;;41.75;36.50;;;;;18.77;41.45;99462.38;5048532;28;8863;-74
2023/05/06 06:01:50;;;;;;;;;44.25;38.50;;;;;18.90;40.96;99458.94;5046062;28;8850;-74
2023/05/06 06:04:20;;;;;;;;;44.50;38.50;;;;;19.01;40.80;99460.16;5029637;28;8834;-74
2023/05/06 06:06:48;;;;;;;;;45.00;38.50;;;;;19.15;40.60;99460.19;5029417;28;8888;-75
2023/05/06 06:09:18;;;;;;;;;42.00;37.00;;;;;19.21;40.15;99459.84;5029247;28;8861;-74
2023/05/06 06:11:48;;;;;;;;;36.00;33.25;;;;;19.16;40.49;99463.72;5029331;28;8865;-74
2023/05/06 06:14:18;;;;;;;;;34.75;31.25;;;;;19.30;40.47;99461.97;4998856;28;8904;-75
2023/05/06 06:16:49;;;;;;;;;46.00;37.25;;;;;19.35;40.03;99460.81;5049083;28;8856;-72
2023/05/06 06:19:19;;;;;;;;;38.00;34.00;;;;;19.34;40.03;99462.66;5049062;28;8852;-74
2023/05/06 06:21:48;;;;;;;;;34.50;32.75;;;;;19.45;40.05;99470.03;5016504;28;8893;-75
2023/05/06 06:24:17;;;;;;;;;39.25;35.00;;;;;19.40;39.51;99458.75;5048872;28;8848;-74
2023/05/06 06:26:47;;;;;;;;;31.25;27.75;;;;;19.12;39.31;99463.03;5065170;28;8871;-74
2023/05/06 06:29:16;;;;;;;;;26.00;24.40;;;;;18.93;38.59;99465.88;5048733;28;8875;-74
2023/05/06 06:31:46;;;;;;;;;24.20;23.20;;;;;19.36;38.06;99466.06;5064975;28;8909;-74
2023/05/06 06:34:15;;;;;;;;;20.20;20.20;;;;;19.03;38.27;99463.59;5066501;28;9603;-73
2023/05/06 06:36:44;;;;;;;;;22.40;21.00;;;;;19.23;38.05;99463.25;5067912;28;8873;-74
2023/05/06 06:39:13;;;;;;;;;18.40;18.40;;;;;19.58;37.10;99462.19;5068036;28;8843;-75
2023/05/06 06:41:42;;;;;;;;;16.40;16.40;;;;;19.62;36.48;99461.91;5066353;28;9001;-75
2023/05/06 06:44:11;;;;;;;;;17.80;15.80;;;;;19.49;36.09;99456.41;5067914;28;8842;-75
2023/05/06 06:46:40;;;;;;;;;23.00;23.00;;;;;19.50;36.97;99460.78;5066571;28;8839;-75
2023/05/06 06:49:10;;;;;;;;;25.20;22.80;;;;;19.52;37.30;99461.59;5068091;28;8854;-74
2023/05/06 06:51:39;;;;;;;;;19.40;19.40;;;;;19.90;36.90;99455.75;5067842;28;8881;-75
2023/05/06 06:54:08;;;;;;;;;21.80;20.60;;;;;19.56;37.42;99458.75;5016115;28;8870;-77
2023/05/06 06:56:37;;;;;;;;;19.80;18.00;;;;;19.70;37.13;99456.94;5067825;28;8850;-75
2023/05/06 06:59:07;;;;;;;;;17.00;16.00;;;;;19.39;37.42;99463.25;5067404;28;8842;-75
2023/05/06 07:01:36;;;;;;;;;17.40;17.20;;;;;18.49;38.77;99467.41;5067692;28;8882;-75
2023/05/06 07:04:05;;;;;;;;;15.00;14.80;;;;;18.84;37.87;99467.28;5067851;28;8942;-75
2023/05/06 07:06:36;;;;;;;;;16.40;16.40;;;;;19.09;37.11;99456.09;5064543;28;8863;-75
2023/05/06 07:09:05;;;;;;;;;15.00;15.00;;;;;19.59;36.93;99471.88;5064407;28;8879;-74
2023/05/06 07:11:33;;;;;;;;;15.20;13.80;;;;;19.89;36.78;99472.69;5064821;28;8910;-75
2023/05/06 07:14:02;;;;;;;;;8.20;8.20;;;;;20.00;36.28;99466.72;5031635;28;8840;-73
2023/05/06 07:16:31;;;;;;;;;13.40;13.40;;;;;20.23;35.94;99467.13;5064907;28;8848;-75
2023/05/06 07:19:00;;;;;;;;;17.60;16.20;;;;;20.53;35.42;99466.16;5064517;28;8856;-75
2023/05/06 07:21:31;;;;;;;;;14.00;13.60;;;;;20.78;34.48;99463.59;5064977;28;8953;-75
2023/05/06 07:24:01;;;;;;;;;18.20;17.20;;;;;20.43;33.38;99469.41;5015769;28;8993;-76
2023/05/06 07:26:30;;;;;;;;;17.60;14.00;;;;;20.56;33.45;99474.81;5064601;28;8863;-76
2023/05/06 07:28:59;;;;;;;;;13.20;13.20;;;;;20.55;33.26;99475.78;5064788;28;8848;-74
2023/05/06 07:31:28;;;;;;;;;11.40;11.40;;;;;20.77;32.94;99483.28;5064414;28;8856;-76
2023/05/06 07:33:57;;;;;;;;;9.20;9.20;;;;;20.64;31.69;99477.00;5031741;28;8847;-75
2023/05/06 07:36:27;;;;;;;;;10.00;9.40;;;;;20.89;31.07;99481.63;5064662;28;8945;-74
2023/05/06 07:38:56;;;;;;;;;8.60;8.00;;;;;21.06;30.72;99484.06;5067019;28;8834;-75
2023/05/06 07:41:26;;;;;;;;;7.80;7.80;;;;;20.68;30.36;99479.38;5067055;28;8859;-74
2023/05/06 07:43:55;;;;;;;;;11.00;11.00;;;;;20.84;30.41;99476.59;5065930;28;8835;-75
2023/05/06 07:46:24;;;;;;;;;8.40;8.40;;;;;21.09;30.26;99490.16;5060554;28;8872;-75
2023/05/06 07:48:53;;;;;;;;;8.60;8.20;;;;;21.31;30.11;99487.78;5047016;28;8857;-74
2023/05/06 07:51:22;;;;;;;;;7.60;7.60;;;;;21.30;29.71;99493.25;5046942;28;8865;-73
2023/05/06 07:53:50;;;;;;;;;9.00;8.40;;;;;21.29;30.04;99491.53;5047443;28;8849;-76
2023/05/06 07:56:19;;;;;;;;;9.60;9.20;;;;;21.32;30.01;99488.66;5012272;28;9031;-75
2023/05/06 07:58:50;;;;;;;;;9.00;9.00;;;;;21.39;29.75;99490.81;5045318;28;8865;-75
2023/05/06 08:01:18;;;;;;;;;6.40;6.40;;;;;21.13;29.43;99483.69;5011981;28;8889;-74
2023/05/06 08:03:47;;;;;;;;;3.80;3.80;;;;;21.38;29.30;99489.09;5046886;28;8891;-74
2023/05/06 08:06:16;;;;;;;;;9.40;9.40;;;;;21.58;28.61;99487.75;5045402;28;8861;-74
2023/05/06 08:08:46;;;;;;;;;7.00;7.00;;;;;21.44;29.46;99488.66;5045690;28;8841;-74
2023/05/06 08:11:14;;;;;;;;;7.80;7.40;;;;;21.57;28.48;99494.06;5046583;28;8875;-75
2023/05/06 08:13:47;;;;;;;;;8.80;8.00;;;;;21.70;28.81;99486.09;5046544;28;9599;-75
2023/05/06 08:16:17;;;;;;;;;9.40;8.40;;;;;21.24;29.52;99484.69;5046472;28;8865;-74
2023/05/06 08:18:46;;;;;;;;;8.00;8.00;;;;;21.45;29.32;99495.75;5024218;28;8831;-74
2023/05/06 08:21:15;;;;;;;;;7.60;7.60;;;;;21.61;28.67;99497.41;5002214;28;9616;-75
2023/05/06 08:23:44;;;;;;;;;9.60;8.20;;;;;21.72;28.76;99497.53;5067898;28;8838;-75
2023/05/06 08:26:12;;;;;;;;;10.40;10.40;;;;;21.49;28.96;99500.91;5067551;28;9000;-75
2023/05/06 08:28:41;;;;;;;;;8.20;8.20;;;;;20.73;30.14;99504.91;5067707;28;8971;-76
2023/05/06 08:31:10;;;;;;;;;10.80;10.80;;;;;20.85;29.89;99491.63;5050821;28;8959;-75
2023/05/06 08:33:40;;;;;;;;;8.40;8.40;;;;;21.25;30.27;99491.72;5067708;28;8904;-73
2023/05/06 08:36:09;;;;;;;;;11.20;10.00;;;;;21.20;30.08;99498.34;5067703;28;8985;-75
2023/05/06 08:38:38;;;;;;;;;10.60;9.60;;;;;21.46;29.89;99493.94;5067785;28;8858;-74
2023/05/06 08:41:09;;;;;;;;;9.80;9.40;;;;;21.71;29.78;99494.97;5034213;28;8858;-74
2023/05/06 08:43:41;;;;;;;;;9.60;8.60;;;;;21.72;29.38;99500.22;5033784;28;8878;-74
2023/05/06 08:46:10;;;;;;;;;8.80;8.80;;;;;22.00;29.00;99501.00;5067538;28;8838;-75
2023/05/06 08:48:41;;;;;;;;;7.60;7.60;;;;;22.06;28.74;99495.22;5067674;28;8846;-75
2023/05/06 08:51:13;;;;;;;;;8.20;8.20;;;;;21.59;28.91;99501.97;5058733;28;8943;-75
2023/05/06 08:53:46;;;;;;;;;10.60;10.40;;;;;21.70;29.44;99502.16;5070317;28;8858;-77
2023/05/06 08:56:16;;;;;;;;;11.00;10.40;;;;;21.98;29.34;99505.59;5069961;28;9628;-75
2023/05/06 08:58:46;;;;;;;;;10.80;9.40;;;;;22.25;29.08;99501.97;5069841;28;8846;-77
2023/05/06 09:01:15;;;;;;;;;10.00;10.00;;;;;22.27;28.62;99500.91;5069946;28;8850;-76
2023/05/06 09:03:47;;;;;;;;;13.00;12.00;;;;;22.39;29.00;99497.38;5068387;28;8957;-75
2023/05/06 09:06:15;;;;;;;;;11.20;11.00;;;;;22.14;29.05;99492.84;5049575;28;8935;-76
2023/05/06 09:08:44;;;;;;;;;9.40;9.00;;;;;22.33;28.65;99491.59;5049115;28;8888;-74
2023/05/06 09:11:21;;;;;;;;;12.20;11.60;;;;;22.05;29.35;99498.84;5031916;28;8857;-77
2023/05/06 09:13:51;;;;;;;;;9.60;8.80;;;;;21.76;28.91;99493.69;5049571;28;8937;-75
2023/05/06 09:16:30;;;;;;;;;12.60;12.60;;;;;21.53;29.85;99483.69;5046948;28;8861;-75
2023/05/06 09:19:00;;;;;;;;;10.80;10.80;;;;;21.78;29.98;99482.88;5046969;28;8837;-76
2023/05/06 09:21:33;;;;;;;;;10.00;8.40;;;;;22.03;29.17;99488.25;5014011;28;8857;-75
2023/05/06 09:24:02;;;;;;;;;11.60;10.80;;;;;22.23;28.94;99491.34;5030097;28;8849;-76
2023/05/06 09:26:33;;;;;;;;;10.00;8.00;;;;;22.41;28.41;99487.41;5016153;28;8872;-74
2023/05/06 09:29:02;;;;;;;;;8.20;8.20;;;;;22.52;28.24;99491.97;5067434;28;8835;-76
2023/05/06 09:31:31;;;;;;;;;6.80;5.80;;;;;22.57;28.67;99483.63;5066821;28;8885;-75
2023/05/06 09:34:01;;;;;;;;;7.60;7.60;;;;;22.62;28.58;99486.84;5066981;28;8838;-74
2023/05/06 09:36:30;;;;;;;;;13.20;12.20;;;;;22.17;28.43;99486.44;5066571;28;8838;-76
2023/05/06 09:38:59;;;;;;;;;8.60;8.60;;;;;22.52;28.51;99478.59;5066346;28;8842;-75
2023/05/06 09:41:29;;;;;;;;;11.20;11.20;;;;;22.63;28.23;99485.84;5066603;28;8870;-75
2023/05/06 09:43:58;;;;;;;;;11.00;10.00;;;;;22.77;28.03;99466.97;5049665;28;8866;-73
2023/05/06 09:46:27;;;;;;;;;9.80;9.80;;;;;22.95;28.71;99480.00;5064966;28;8901;-75
2023/05/06 09:48:57;;;;;;;;;10.80;10.80;;;;;22.89;28.45;99473.25;5048722;28;8841;-75
2023/05/06 09:51:28;;;;;;;;;16.60;15.00;;;;;22.94;28.79;99473.78;5047457;28;8922;-75
2023/05/06 09:53:58;;;;;;;;;11.80;11.80;;;;;22.97;28.16;99476.22;5048699;28;8868;-74
2023/05/06 09:56:28;;;;;;;;;12.40;11.60;;;;;23.02;27.84;99478.59;5052877;28;8973;-75
2023/05/06 09:59:00;;;;;;;;;11.00;11.00;;;;;22.85;28.30;99468.22;5068576;28;8850;-74
2023/05/06 10:01:31;;;;;;;;;11.40;10.20;;;;;23.05;28.38;99456.88;5068619;28;8861;-74
2023/05/06 10:04:09;;;;;;;;;12.80;12.80;;;;;23.27;28.07;99466.03;5067088;28;8858;-74
2023/05/06 10:06:41;;;;;;;;;11.00;11.00;;;;;23.22;27.44;99457.47;5068437;28;8874;-77
2023/05/06 10:09:10;;;;;;;;;12.20;12.20;;;;;23.47;28.16;99465.38;5032549;28;8855;-74
2023/05/06 10:11:40;;;;;;;;;10.80;9.80;;;;;23.67;27.29;99458.47;5016987;28;8869;-73
2023/05/06 10:14:10;;;;;;;;;11.60;11.20;;;;;23.85;27.22;99455.38;5032253;28;8862;-77
2023/05/06 10:16:41;;;;;;;;;12.20;12.20;;;;;23.75;26.84;99450.72;5067808;28;8963;-76
2023/05/06 10:19:12;;;;;;;;;10.00;10.00;;;;;23.95;26.60;99449.13;5066716;28;8862;-75
2023/05/06 10:21:49;;;;;;;;;10.60;10.60;;;;;24.01;26.22;99449.63;5067578;28;8857;-75
2023/05/06 10:24:29;;;;;;;;;11.20;11.20;;;;;23.97;26.66;99446.34;5067929;28;8993;-73
2023/05/06 10:26:57;;;;;;;;;8.80;8.80;;;;;23.98;26.99;99453.44;5066387;28;8846;-75
2023/05/06 10:29:26;;;;;;;;;8.60;7.60;;;;;24.04;27.21;99441.34;5067791;28;8977;-77
2023/05/06 10:31:59;;;;;;;;;11.00;9.80;;;;;24.15;26.59;99439.53;5032440;28;8826;-75
2023/05/06 10:34:36;;;;;;;;;8.80;8.80;;;;;24.37;26.26;99437.81;5068013;28;8864;-76
2023/05/06 10:37:07;;;;;;;;;9.40;9.40;;;;;24.43;26.32;99433.78;5067967;28;8855;-76
2023/05/06 10:39:36;;;;;;;;;13.00;11.80;;;;;24.51;25.87;99431.34;5067741;28;8880;-74
2023/05/06 10:42:10;;;;;;;;;8.00;8.00;;;;;24.57;25.62;99428.16;5032266;28;9004;-75
2023/05/06 10:44:59;;;;;;;;;12.20;10.00;;;;;24.80;25.71;99428.97;5067106;28;8874;-73
2023/05/06 10:47:28;;;;;;;;;11.00;11.00;;;;;24.79;25.52;99427.25;5066145;28;8838;-76
2023/05/06 10:50:24;;;;;;;;;9.40;9.40;;;;;24.96;25.13;99428.53;5066325;28;8874;-73
2023/05/06 10:52:56;;;;;;;;;9.00;9.00;;;;;24.92;25.10;99436.03;5024714;28;9025;-75
2023/05/06 10:55:26;;;;;;;;;10.40;10.40;;;;;24.93;25.24;99429.66;5024345;28;8918;-76
2023/05/06 10:57:56;;;;;;;;;10.00;9.80;;;;;25.05;24.91;99425.09;5024374;28;8917;-73
2023/05/06 11:00:25;;;;;;;;;12.60;12.20;;;;;24.84;24.69;99425.03;5024909;28;8915;-75
2023/05/06 11:02:56;;;;;;;;;10.00;10.00;;;;;24.96;25.33;99430.38;5024874;28;8878;-74
2023/05/06 11:05:25;;;;;;;;;11.20;11.20;;;;;24.86;25.29;99425.78;5024625;28;8867;-77
2023/05/06 11:08:07;;;;;;;;;9.80;9.80;;;;;24.98;25.16;99420.34;5024892;28;8828;-73
2023/05/06 11:10:36;;;;;;;;;9.00;8.20;;;;;24.80;25.27;99414.69;5024937;28;8852;-74
2023/05/06 11:13:25;;;;;;;;;11.20;11.20;;;;;24.95;25.16;99420.63;5008396;28;8855;-75
2023/05/06 11:15:55;;;;;;;;;13.40;13.40;;;;;24.92;25.54;99413.66;5008412;28;8902;-75
2023/05/06 11:18:44;;;;;;;;;11.20;9.20;;;;;24.90;24.67;99413.78;5024657;28;8909;-76
2023/05/06 11:21:35;;;;;;;;;8.40;8.00;;;;;25.13;25.04;99411.88;5008348;28;8883;-76
2023/05/06 11:24:11;;;;;;;;;9.00;9.00;;;;;25.24;24.89;99410.09;5007820;28;8875;-73
2023/05/06 11:26:43;;;;;;;;;11.60;11.60;;;;;25.34;24.65;99408.38;5008116;28;8864;-77
2023/05/06 11:29:12;;;;;;;;;13.00;12.00;;;;;25.45;24.23;99415.50;5046339;28;9012;-74
2023/05/06 11:31:42;;;;;;;;;8.00;8.00;;;;;25.62;24.60;99409.53;5065929;28;8870;-75
2023/05/06 11:34:21;;;;;;;;;9.20;8.20;;;;;25.81;24.17;99411.47;5049033;28;8855;-74
2023/05/06 11:36:53;;;;;;;;;18.60;18.00;;;;;26.03;24.27;99406.94;5066952;28;8973;-77
2023/05/06 11:39:24;;;;;;;;;11.00;10.00;;;;;26.14;23.20;99406.84;5067271;28;8873;-76
2023/05/06 11:41:53;;;;;;;;;10.40;10.40;;;;;26.54;23.39;99416.78;5066837;28;8850;-75
2023/05/06 11:44:27;;;;;;;;;11.00;11.00;;;;;26.84;23.04;99409.59;5067065;28;10078;-76
2023/05/06 11:47:00;;;;;;;;;10.40;9.60;;;;;26.82;23.27;99416.97;5067146;28;8846;-77